createdAt,value
2022-09-25T00:02:30.271Z,39.40
2022-09-25T00:05:00.166Z,40.50
2022-09-25T00:07:53.638Z,37.10
2022-09-25T00:10:24.715Z,40.60
2022-09-25T00:12:55.848Z,44.40
2022-09-25T00:15:30.990Z,49.20
2022-09-25T00:18:03.622Z,53.20
2022-09-25T00:20:32.924Z,58.10
2022-09-25T00:23:08.571Z,55.30
2022-09-25T00:25:41.639Z,139.30
2022-09-25T00:28:18.223Z,217.50
2022-09-25T00:30:48.293Z,212.80
2022-09-25T00:33:18.966Z,193.10
2022-09-25T00:36:17.348Z,190.50
2022-09-25T00:39:11.519Z,265.30
2022-09-25T00:41:43.409Z,259.30
2022-09-25T00:48:40.214Z,166.10
2022-09-25T00:51:13.804Z,107.10
2022-09-25T00:54:32.943Z,57.70
2022-09-25T00:57:34.055Z,44.30
2022-09-25T01:00:38.955Z,38.70
2022-09-25T01:03:39.694Z,35.60
2022-09-25T01:06:21.681Z,34.30
2022-09-25T01:08:56.410Z,33.80
2022-09-25T01:15:20.001Z,33.20
2022-09-25T01:18:02.871Z,34.70
2022-09-25T01:21:04.270Z,32.90
2022-09-25T01:24:04.385Z,31.10
2022-09-25T01:27:23.379Z,30.60
2022-09-25T01:30:27.991Z,28.40
2022-09-25T01:33:11.504Z,29.10
2022-09-25T01:35:50.496Z,32.10
2022-09-25T01:38:28.451Z,33.30
2022-09-25T01:41:33.613Z,32.80
2022-09-25T01:44:13.856Z,31.00
2022-09-25T01:47:10.074Z,32.20
2022-09-25T01:50:10.423Z,31.70
2022-09-25T01:52:45.989Z,30.70
2022-09-25T01:55:26.946Z,32.00
2022-09-25T01:58:31.791Z,30.60
2022-09-25T02:01:10.429Z,29.30
2022-09-25T02:04:56.505Z,27.60
2022-09-25T02:07:30.312Z,28.10
2022-09-25T02:10:33.071Z,28.40
2022-09-25T02:13:10.114Z,28.20
2022-09-25T02:15:44.582Z,27.80
2022-09-25T02:18:42.480Z,26.30
2022-09-25T02:21:45.242Z,28.70
2022-09-25T02:28:05.394Z,31.40
2022-09-25T02:30:39.332Z,31.70
2022-09-25T02:34:00.259Z,34.20
2022-09-25T02:37:27.792Z,32.40
2022-09-25T02:47:17.846Z,31.80
2022-09-25T02:56:46.814Z,30.90
2022-09-25T03:00:03.780Z,34.30
2022-09-25T03:03:01.487Z,32.50
2022-09-25T03:05:42.168Z,35.60
2022-09-25T03:18:38.449Z,39.50
2022-09-25T03:24:40.458Z,39.70
2022-09-25T03:27:13.953Z,39.30
2022-09-25T03:30:17.051Z,39.60
2022-09-25T03:33:20.349Z,41.10
2022-09-25T03:37:11.258Z,40.50
2022-09-25T03:39:40.026Z,38.40
2022-09-25T03:42:13.259Z,37.20
2022-09-25T03:44:49.018Z,33.00
2022-09-25T03:47:45.640Z,32.70
2022-09-25T03:50:18.733Z,33.00
2022-09-25T03:52:48.519Z,32.50
2022-09-25T03:55:23.468Z,31.30
2022-09-25T03:58:04.900Z,30.30
2022-09-25T04:00:43.582Z,29.50
2022-09-25T04:03:40.500Z,28.30
2022-09-25T04:06:37.793Z,27.30
2022-09-25T04:09:59.027Z,28.90
2022-09-25T04:12:56.641Z,26.00
2022-09-25T04:15:32.930Z,25.40
2022-09-25T04:18:07.188Z,25.80
2022-09-25T04:20:38.504Z,24.60
2022-09-25T04:23:09.965Z,25.20
2022-09-25T04:25:48.583Z,25.40
2022-09-25T04:28:26.256Z,25.20
2022-09-25T04:31:22.386Z,24.00
2022-09-25T04:37:41.890Z,23.40
2022-09-25T04:41:03.267Z,24.20
2022-09-25T04:44:26.269Z,24.90
2022-09-25T04:47:24.702Z,27.70
2022-09-25T04:50:23.672Z,27.80
2022-09-25T04:52:57.787Z,28.70
2022-09-25T04:55:30.798Z,30.10
2022-09-25T05:04:45.978Z,31.70
2022-09-25T05:07:53.943Z,33.10
2022-09-25T05:11:12.198Z,40.90
2022-09-25T05:13:50.139Z,41.10
2022-09-25T05:16:25.979Z,39.50
2022-09-25T05:19:46.816Z,36.80
2022-09-25T05:22:44.124Z,34.60
2022-09-25T05:25:23.713Z,32.30
2022-09-25T05:31:10.059Z,30.10
2022-09-25T05:37:10.867Z,26.70
2022-09-25T05:40:29.101Z,26.40
2022-09-25T05:43:00.660Z,27.10
2022-09-25T05:45:32.029Z,27.30
2022-09-25T05:48:07.781Z,27.40
2022-09-25T05:50:39.787Z,29.20
2022-09-25T05:53:14.373Z,31.70
2022-09-25T06:02:59.462Z,30.40
2022-09-25T06:05:37.229Z,32.30
2022-09-25T06:08:42.483Z,30.90
2022-09-25T06:12:11.275Z,31.90
2022-09-25T06:14:48.432Z,35.80
2022-09-25T06:17:20.816Z,37.50
2022-09-25T06:19:51.301Z,32.10
2022-09-25T06:29:08.205Z,25.00
2022-09-25T06:31:43.027Z,24.90
2022-09-25T06:35:28.774Z,24.60
2022-09-25T06:38:04.877Z,23.30
2022-09-25T06:40:41.777Z,23.20
2022-09-25T06:43:43.181Z,23.70
2022-09-25T06:46:47.703Z,23.80
2022-09-25T06:49:28.487Z,23.00
2022-09-25T06:52:25.125Z,24.60
2022-09-25T06:55:00.262Z,24.70
2022-09-25T06:57:55.595Z,22.80
2022-09-25T07:00:28.479Z,24.10
2022-09-25T07:03:21.421Z,24.40
2022-09-25T07:05:53.861Z,24.90
2022-09-25T07:08:26.679Z,24.60
2022-09-25T07:11:00.188Z,25.30
2022-09-25T07:14:00.488Z,24.30
2022-09-25T07:16:56.835Z,23.50
2022-09-25T07:19:30.129Z,23.10
2022-09-25T07:22:27.618Z,23.80
2022-09-25T07:25:23.310Z,24.60
2022-09-25T07:27:52.376Z,25.20
2022-09-25T07:30:20.786Z,24.00
2022-09-25T07:36:45.323Z,23.20
2022-09-25T07:39:40.586Z,23.60
2022-09-25T07:42:11.395Z,23.00
2022-09-25T07:45:15.347Z,21.40
2022-09-25T07:48:17.739Z,22.30
2022-09-25T07:54:43.284Z,22.00
2022-09-25T07:57:38.895Z,22.00
2022-09-25T08:00:36.150Z,24.00
2022-09-25T08:03:11.070Z,23.20
2022-09-25T08:05:45.280Z,24.60
2022-09-25T08:10:26.829Z,26.00
2022-09-25T08:13:31.126Z,26.40
2022-09-25T08:16:05.110Z,26.50
2022-09-25T08:18:38.394Z,25.90
2022-09-25T08:21:40.854Z,25.00
2022-09-25T08:25:04.483Z,25.30
2022-09-25T08:27:47.393Z,26.50
2022-09-25T08:30:18.950Z,25.80
2022-09-25T08:33:39.559Z,26.70
2022-09-25T08:36:36.247Z,25.10
2022-09-25T08:39:11.650Z,22.80
2022-09-25T08:41:50.350Z,22.10
2022-09-25T08:44:29.690Z,21.90
2022-09-25T08:47:38.728Z,21.40
2022-09-25T08:50:38.646Z,21.30
2022-09-25T08:57:56.968Z,22.20
2022-09-25T09:01:45.131Z,21.10
2022-09-25T09:04:51.507Z,22.20
2022-09-25T09:07:45.012Z,22.50
2022-09-25T09:10:31.449Z,21.30
2022-09-25T09:13:16.108Z,20.80
2022-09-25T09:16:36.456Z,24.10
2022-09-25T09:19:10.871Z,23.40
2022-09-25T09:22:31.340Z,24.00
2022-09-25T09:25:13.481Z,22.90
2022-09-25T09:28:14.501Z,24.90
2022-09-25T09:30:53.642Z,25.20
2022-09-25T09:33:49.715Z,26.70
2022-09-25T09:36:50.240Z,26.40
2022-09-25T09:39:50.177Z,25.70
2022-09-25T09:49:14.941Z,23.80
2022-09-25T09:52:20.561Z,26.10
2022-09-25T09:55:30.475Z,25.40
2022-09-25T09:58:10.057Z,25.70
2022-09-25T10:01:16.252Z,25.00
2022-09-25T10:04:24.779Z,25.60
2022-09-25T10:07:24.762Z,27.10
2022-09-25T10:10:27.542Z,27.10
2022-09-25T10:16:13.191Z,25.30
2022-09-25T10:19:19.500Z,28.30
2022-09-25T10:22:23.063Z,23.90
2022-09-25T10:27:55.726Z,23.30
2022-09-25T10:30:24.287Z,23.60
2022-09-25T10:33:06.318Z,22.20
2022-09-25T10:35:49.327Z,22.10
2022-09-25T10:38:55.283Z,22.00
2022-09-25T10:41:49.212Z,22.10
2022-09-25T10:44:25.491Z,21.10
2022-09-25T10:47:58.503Z,21.30
2022-09-25T10:50:41.145Z,21.20
2022-09-25T10:53:38.899Z,20.30
2022-09-25T10:56:15.753Z,20.00
2022-09-25T10:59:20.115Z,18.30
2022-09-25T11:02:02.625Z,21.40
2022-09-25T11:04:57.857Z,19.80
2022-09-25T11:07:31.431Z,19.30
2022-09-25T11:11:15.760Z,18.40
2022-09-25T11:15:00.441Z,20.20
2022-09-25T11:17:56.758Z,19.20
2022-09-25T11:20:33.592Z,17.30
2022-09-25T11:23:26.199Z,18.00
2022-09-25T11:26:36.687Z,19.40
2022-09-25T11:29:41.622Z,18.10
2022-09-25T11:32:23.660Z,19.30
2022-09-25T11:35:31.965Z,16.40
2022-09-25T11:38:20.912Z,16.40
2022-09-25T11:45:33.421Z,16.40
2022-09-25T11:52:43.793Z,16.30
2022-09-25T11:55:47.175Z,16.10
2022-09-25T12:01:54.780Z,17.30
2022-09-25T12:08:55.705Z,15.40
2022-09-25T12:17:57.021Z,14.20
2022-09-25T12:21:07.266Z,13.60
2022-09-25T12:23:46.001Z,13.50
2022-09-25T12:26:53.220Z,12.80
2022-09-25T12:29:47.574Z,12.50
2022-09-25T12:32:53.211Z,12.30
2022-09-25T12:35:38.927Z,11.70
2022-09-25T12:38:21.242Z,11.50
2022-09-25T12:44:56.603Z,12.20
2022-09-25T12:58:00.647Z,10.70
2022-09-25T13:00:35.677Z,10.70
2022-09-25T13:03:22.123Z,10.60
2022-09-25T13:19:53.583Z,8.90
2022-09-25T13:22:50.766Z,7.60
2022-09-25T13:25:47.262Z,12.10
2022-09-25T13:28:27.453Z,9.50
2022-09-25T13:31:12.515Z,10.30
2022-09-25T13:34:16.900Z,10.50
2022-09-25T13:36:50.554Z,10.40
2022-09-25T13:42:57.980Z,12.90
2022-09-25T13:45:35.380Z,10.50
2022-09-25T13:48:22.312Z,10.40
2022-09-25T13:51:45.144Z,11.20
2022-09-25T13:54:33.248Z,11.60
2022-09-25T13:57:18.374Z,11.30
2022-09-25T14:00:06.348Z,10.60
2022-09-25T14:02:46.988Z,11.30
2022-09-25T14:05:27.447Z,9.90
2022-09-25T14:11:41.152Z,11.30
2022-09-25T14:17:21.794Z,11.30
2022-09-25T14:19:58.986Z,12.30
2022-09-25T14:23:42.632Z,12.80
2022-09-25T14:26:21.931Z,11.60
2022-09-25T14:28:54.941Z,11.90
2022-09-25T14:31:45.171Z,11.80
2022-09-25T14:34:44.232Z,12.30
2022-09-25T14:40:46.250Z,12.30
2022-09-25T14:43:44.755Z,12.60
2022-09-25T14:46:19.325Z,11.90
2022-09-25T14:48:56.044Z,12.20
2022-09-25T14:51:31.437Z,12.20
2022-09-25T14:54:13.403Z,12.00
2022-09-25T14:56:49.841Z,11.80
2022-09-25T14:59:46.031Z,12.20
2022-09-25T15:03:09.578Z,11.80
2022-09-25T15:05:50.732Z,13.30
2022-09-25T15:08:26.103Z,11.70
2022-09-25T15:11:13.859Z,11.20
2022-09-25T15:14:11.505Z,12.10
2022-09-25T15:17:05.010Z,13.10
2022-09-25T15:19:40.300Z,13.70
2022-09-25T15:22:38.666Z,12.70
2022-09-25T15:25:23.103Z,13.40
2022-09-25T15:31:04.970Z,17.00
2022-09-25T15:33:42.513Z,17.60
2022-09-25T15:36:41.807Z,16.20
2022-09-25T15:42:25.451Z,14.40
2022-09-25T15:45:44.461Z,13.50
2022-09-25T15:48:42.148Z,13.20
2022-09-25T15:51:37.712Z,13.60
2022-09-25T15:54:43.411Z,13.80
2022-09-25T15:57:16.803Z,13.50
2022-09-25T16:00:08.513Z,13.30
2022-09-25T16:03:04.587Z,13.60
2022-09-25T16:05:37.895Z,13.70
2022-09-25T16:08:33.925Z,13.20
2022-09-25T16:11:29.222Z,13.90
2022-09-25T16:14:32.174Z,14.40
2022-09-25T16:17:33.386Z,14.70
2022-09-25T16:20:56.708Z,15.90
2022-09-25T16:23:57.286Z,14.80
2022-09-25T16:26:47.874Z,15.50
2022-09-25T16:29:23.376Z,16.30
2022-09-25T16:38:01.786Z,17.10
2022-09-25T16:40:39.590Z,18.60
2022-09-25T16:43:43.756Z,17.90
2022-09-25T16:49:52.455Z,21.20
2022-09-25T17:02:37.375Z,20.40
2022-09-25T17:05:20.870Z,21.70
2022-09-25T17:07:52.754Z,22.50
2022-09-25T17:10:29.364Z,23.70
2022-09-25T17:13:05.945Z,22.70
2022-09-25T17:15:40.639Z,24.50
2022-09-25T17:18:23.445Z,23.10
2022-09-25T17:21:21.794Z,24.50
2022-09-25T17:23:58.680Z,25.40
2022-09-25T17:26:37.029Z,26.30
2022-09-25T17:29:13.843Z,27.90
2022-09-25T17:31:46.830Z,28.70
2022-09-25T17:34:51.581Z,30.10
2022-09-25T17:37:28.366Z,30.30
2022-09-25T17:41:16.584Z,31.10
2022-09-25T17:43:57.077Z,32.40
2022-09-25T17:46:34.335Z,31.90
2022-09-25T17:52:27.470Z,32.60
2022-09-25T17:55:06.682Z,33.20
2022-09-25T17:57:45.660Z,32.30
2022-09-25T18:00:45.253Z,32.90
2022-09-25T18:03:46.857Z,32.60
2022-09-25T18:06:31.219Z,33.10
2022-09-25T18:09:32.755Z,33.30
2022-09-25T18:16:46.057Z,33.40
2022-09-25T18:19:45.752Z,32.20
2022-09-25T18:22:22.454Z,31.80
2022-09-25T18:24:58.930Z,33.00
2022-09-25T18:27:57.312Z,35.10
2022-09-25T18:30:32.797Z,35.90
2022-09-25T18:33:10.594Z,37.00
2022-09-25T18:35:46.526Z,36.40
2022-09-25T18:38:50.595Z,36.60
2022-09-25T18:41:32.625Z,36.90
2022-09-25T18:44:41.304Z,38.60
2022-09-25T18:47:49.810Z,37.40
2022-09-25T18:50:29.730Z,40.80
2022-09-25T18:53:16.098Z,41.70
2022-09-25T18:55:53.643Z,38.80
2022-09-25T18:58:31.764Z,38.00
2022-09-25T19:01:07.606Z,38.10
2022-09-25T19:03:44.589Z,37.60
2022-09-25T19:07:04.426Z,38.60
2022-09-25T19:09:44.139Z,42.50
2022-09-25T19:12:41.217Z,42.70
2022-09-25T19:15:25.066Z,44.20
2022-09-25T19:18:00.294Z,45.30
2022-09-25T19:20:35.569Z,46.60
2022-09-25T19:26:27.624Z,42.60
2022-09-25T19:29:01.864Z,43.10
2022-09-25T19:31:44.647Z,44.30
2022-09-25T19:34:19.588Z,42.10
2022-09-25T19:36:57.447Z,42.50
2022-09-25T19:40:13.439Z,40.80
2022-09-25T19:42:48.543Z,39.60
2022-09-25T19:45:20.671Z,40.30
2022-09-25T19:48:19.740Z,41.30
2022-09-25T19:51:16.679Z,39.80
2022-09-25T19:54:15.240Z,41.30
2022-09-25T19:57:11.398Z,40.10
2022-09-25T19:59:49.640Z,40.30
2022-09-25T20:02:30.759Z,38.80
2022-09-25T20:05:17.928Z,40.70
2022-09-25T20:07:49.796Z,40.50
2022-09-25T20:10:20.725Z,42.60
2022-09-25T20:12:52.718Z,42.10
2022-09-25T20:15:26.045Z,42.60
2022-09-25T20:18:03.860Z,48.10
2022-09-25T20:20:36.445Z,48.90
2022-09-25T20:23:12.310Z,46.70
2022-09-25T20:25:42.266Z,45.40
2022-09-25T20:28:59.012Z,42.20
2022-09-25T20:31:56.066Z,41.50
2022-09-25T20:34:27.823Z,41.80
2022-09-25T20:37:06.146Z,42.80
2022-09-25T20:40:10.799Z,47.60
2022-09-25T20:42:52.799Z,52.70
2022-09-25T20:45:48.325Z,54.70
2022-09-25T20:48:20.837Z,53.20
2022-09-25T20:52:04.436Z,55.70
2022-09-25T20:57:54.714Z,50.10
2022-09-25T21:00:31.936Z,51.60
2022-09-25T21:03:04.863Z,54.50
2022-09-25T21:05:49.547Z,52.70
2022-09-25T21:08:20.855Z,52.30
2022-09-25T21:10:55.762Z,53.90
2022-09-25T21:13:51.323Z,63.50
2022-09-25T21:16:33.225Z,62.10
2022-09-25T21:19:31.944Z,58.80
2022-09-25T21:22:24.762Z,51.70
2022-09-25T21:25:18.498Z,53.10
2022-09-25T21:28:17.110Z,54.50
2022-09-25T21:30:47.506Z,53.00
2022-09-25T21:34:36.507Z,51.50
2022-09-25T21:37:32.842Z,50.70
2022-09-25T21:40:20.335Z,52.70
2022-09-25T21:43:13.701Z,53.10
2022-09-25T21:46:08.945Z,52.40
2022-09-25T21:55:22.261Z,49.00
2022-09-25T21:57:56.258Z,49.20
2022-09-25T22:00:26.705Z,48.50
2022-09-25T22:03:00.547Z,46.80
2022-09-25T22:05:34.827Z,48.10
2022-09-25T22:08:08.619Z,50.50
2022-09-25T22:17:57.245Z,59.20
2022-09-25T22:20:32.299Z,61.50
2022-09-25T22:23:08.314Z,65.70
2022-09-25T22:25:38.685Z,68.10
2022-09-25T22:28:08.672Z,66.80
2022-09-25T22:30:45.490Z,67.70
2022-09-25T22:33:24.299Z,78.00
2022-09-25T22:36:05.105Z,73.80
2022-09-25T22:39:23.781Z,68.30
2022-09-25T22:42:01.898Z,85.20
2022-09-25T22:45:27.922Z,77.60
2022-09-25T22:47:59.555Z,70.20
2022-09-25T22:50:33.661Z,65.30
2022-09-25T22:53:07.396Z,67.30
2022-09-25T22:55:38.160Z,64.40
2022-09-25T22:58:06.733Z,66.30
2022-09-25T23:00:38.979Z,65.20
2022-09-25T23:03:11.276Z,63.10
2022-09-25T23:05:51.880Z,63.40
2022-09-25T23:08:21.888Z,61.70
2022-09-25T23:11:46.108Z,61.90
2022-09-25T23:14:29.855Z,56.90
2022-09-25T23:20:48.248Z,60.30
2022-09-25T23:23:19.772Z,60.50
2022-09-25T23:25:53.091Z,59.60
2022-09-25T23:28:22.316Z,58.80
2022-09-25T23:30:57.343Z,60.20
2022-09-25T23:33:28.594Z,60.80
2022-09-25T23:36:25.496Z,61.30
2022-09-25T23:39:24.929Z,57.90
2022-09-25T23:42:03.744Z,60.70
2022-09-25T23:45:24.484Z,61.30
2022-09-25T23:47:57.755Z,77.40
2022-09-25T23:50:30.677Z,80.20
2022-09-25T23:53:09.296Z,76.20
2022-09-25T23:56:07.635Z,75.10
2022-09-25T23:59:27.297Z,84.50
